Askov, Minnesota
Current Conditions -  °F | °C
As of 3:43 AM on Friday 24 Oct 2014 (Local Time) from K04W Reporting Station
Moderate Fog Moderate Fog  
Wind Chill:   Ceiling: 200
Heat Index:   Visibility: 0.25mi
Dew Point:   Wind: 0mph
Humidity: 100%   Direction: NA
Pressure: 29.94"   Gusts: NA
Location:  46.19°N, 92.78°W
Report Text: K04W 240843Z AUTO 00000KT 1/4SM FG OVC002 08/08 A2994 RMK AO2
Loading
Personal Weather Stations






























Interactive Weather Map
Tropical Storm Tracking
New forecast layout! Learn more

10-Day Weather Forecast

Advertisements
Track Severe Weather on mobile